sensor_id;sensor_type;location;lat;lon;timestamp;pressure;altitude;pressure_sealevel;temperature;humidity
78584;BME280;67880;46.082;18.234;2023-07-13T00:00:02;99374.34;;;25.56;62.10
78584;BME280;67880;46.082;18.234;2023-07-13T00:00:40;99372.16;;;25.53;61.61
78584;BME280;67880;46.082;18.234;2023-07-13T00:01:16;99366.91;;;25.52;61.93
78584;BME280;67880;46.082;18.234;2023-07-13T00:01:51;99364.16;;;25.52;61.88
78584;BME280;67880;46.082;18.234;2023-07-13T00:02:30;99364.75;;;25.59;62.24
78584;BME280;67880;46.082;18.234;2023-07-13T00:03:07;99359.81;;;25.61;61.62
78584;BME280;67880;46.082;18.234;2023-07-13T00:03:43;99359.25;;;25.59;61.91
78584;BME280;67880;46.082;18.234;2023-07-13T00:04:21;99350.16;;;25.53;62.04
78584;BME280;67880;46.082;18.234;2023-07-13T00:04:56;99357.63;;;25.58;61.62
78584;BME280;67880;46.082;18.234;2023-07-13T00:05:30;99365.03;;;25.57;62.38
78584;BME280;67880;46.082;18.234;2023-07-13T00:06:08;99368.03;;;25.56;61.64
78584;BME280;67880;46.082;18.234;2023-07-13T00:06:45;99358.72;;;25.57;61.46
78584;BME280;67880;46.082;18.234;2023-07-13T00:07:21;99368.03;;;25.56;62.18
78584;BME280;67880;46.082;18.234;2023-07-13T00:07:55;99360.38;;;25.63;61.04
78584;BME280;67880;46.082;18.234;2023-07-13T00:08:33;99364.22;;;25.62;61.98
78584;BME280;67880;46.082;18.234;2023-07-13T00:09:43;99357.91;;;25.61;61.40
78584;BME280;67880;46.082;18.234;2023-07-13T00:10:18;99360.66;;;25.61;61.41
78584;BME280;67880;46.082;18.234;2023-07-13T00:10:53;99365.59;;;25.59;61.67
78584;BME280;67880;46.082;18.234;2023-07-13T00:11:28;99363.84;;;25.48;62.38
78584;BME280;67880;46.082;18.234;2023-07-13T00:12:05;99360.28;;;25.48;62.39
78584;BME280;67880;46.082;18.234;2023-07-13T00:12:40;99363.59;;;25.50;62.24
78584;BME280;67880;46.082;18.234;2023-07-13T00:14:28;99359.19;;;25.49;62.50
78584;BME280;67880;46.082;18.234;2023-07-13T00:16:15;99349.00;;;25.49;61.82
78584;BME280;67880;46.082;18.234;2023-07-13T00:16:54;99347.69;;;25.52;61.93
78584;BME280;67880;46.082;18.234;2023-07-13T00:17:30;99358.69;;;25.52;61.94
78584;BME280;67880;46.082;18.234;2023-07-13T00:18:04;99355.94;;;25.52;61.97
78584;BME280;67880;46.082;18.234;2023-07-13T00:19:13;99354.78;;;25.48;60.98
78584;BME280;67880;46.082;18.234;2023-07-13T00:20:24;99351.75;;;25.44;61.53
78584;BME280;67880;46.082;18.234;2023-07-13T00:21:00;99350.91;;;25.44;61.89
78584;BME280;67880;46.082;18.234;2023-07-13T00:21:41;99353.09;;;25.42;61.85
78584;BME280;67880;46.082;18.234;2023-07-13T00:22:18;99355.84;;;25.42;61.56
78584;BME280;67880;46.082;18.234;2023-07-13T00:22:53;99353.13;;;25.47;60.99
78584;BME280;67880;46.082;18.234;2023-07-13T00:23:27;99346.25;;;25.49;61.20
78584;BME280;67880;46.082;18.234;2023-07-13T00:24:35;99349.31;;;25.53;60.75
78584;BME280;67880;46.082;18.234;2023-07-13T00:25:16;99348.47;;;25.47;61.32
78584;BME280;67880;46.082;18.234;2023-07-13T00:25:52;99353.13;;;25.47;60.93
78584;BME280;67880;46.082;18.234;2023-07-13T00:26:59;99356.16;;;25.45;61.83
78584;BME280;67880;46.082;18.234;2023-07-13T00:27:35;99350.91;;;25.44;60.97
78584;BME280;67880;46.082;18.234;2023-07-13T00:29:21;99350.34;;;25.42;61.42
78584;BME280;67880;46.082;18.234;2023-07-13T00:30:33;99350.34;;;25.42;61.13
78584;BME280;67880;46.082;18.234;2023-07-13T00:31:44;99348.16;;;25.44;61.34
78584;BME280;67880;46.082;18.234;2023-07-13T00:32:57;99346.25;;;25.44;61.86
78584;BME280;67880;46.082;18.234;2023-07-13T00:34:25;99345.41;;;25.44;61.56
78584;BME280;67880;46.082;18.234;2023-07-13T00:34:59;99344.34;;;25.45;61.38
78584;BME280;67880;46.082;18.234;2023-07-13T00:35:35;99340.16;;;25.42;61.72
78584;BME280;67880;46.082;18.234;2023-07-13T00:36:10;99340.44;;;25.41;61.35
78584;BME280;67880;46.082;18.234;2023-07-13T00:36:49;99341.00;;;25.43;61.86
78584;BME280;67880;46.082;18.234;2023-07-13T00:37:24;99342.41;;;25.45;62.05
78584;BME280;67880;46.082;18.234;2023-07-13T00:37:59;99338.53;;;25.41;61.69
78584;BME280;67880;46.082;18.234;2023-07-13T00:39:09;99348.69;;;25.41;62.09
78584;BME280;67880;46.082;18.234;2023-07-13T00:39:44;99348.69;;;25.41;62.16
78584;BME280;67880;46.082;18.234;2023-07-13T00:40:18;99347.88;;;25.40;61.71
78584;BME280;67880;46.082;18.234;2023-07-13T00:40:52;99347.31;;;25.43;61.98
78584;BME280;67880;46.082;18.234;2023-07-13T00:41:28;99344.34;;;25.45;61.98
78584;BME280;67880;46.082;18.234;2023-07-13T00:42:07;99352.81;;;25.43;62.17
78584;BME280;67880;46.082;18.234;2023-07-13T00:42:43;99349.00;;;25.44;61.78
78584;BME280;67880;46.082;18.234;2023-07-13T00:43:21;99347.09;;;25.45;61.08
78584;BME280;67880;46.082;18.234;2023-07-13T00:46:54;99350.06;;;25.38;61.25
78584;BME280;67880;46.082;18.234;2023-07-13T00:48:40;99353.53;;;25.28;61.75
78584;BME280;67880;46.082;18.234;2023-07-13T00:49:53;99355.25;;;25.34;60.87
78584;BME280;67880;46.082;18.234;2023-07-13T00:51:04;99346.66;;;25.26;62.12
78584;BME280;67880;46.082;18.234;2023-07-13T00:52:13;99351.84;;;25.22;61.54
78584;BME280;67880;46.082;18.234;2023-07-13T00:52:51;99344.16;;;25.24;61.20
78584;BME280;67880;46.082;18.234;2023-07-13T00:54:05;99350.50;;;25.25;61.54
78584;BME280;67880;46.082;18.234;2023-07-13T00:54:45;99343.03;;;25.20;61.98
78584;BME280;67880;46.082;18.234;2023-07-13T00:55:56;99347.13;;;25.18;62.13
78584;BME280;67880;46.082;18.234;2023-07-13T00:56:31;99337.81;;;25.19;62.35
78584;BME280;67880;46.082;18.234;2023-07-13T00:57:15;99338.66;;;25.19;62.51
78584;BME280;67880;46.082;18.234;2023-07-13T00:57:50;99345.22;;;25.18;62.22
78584;BME280;67880;46.082;18.234;2023-07-13T00:58:26;99338.38;;;25.21;62.01
78584;BME280;67880;46.082;18.234;2023-07-13T00:59:43;99349.09;;;25.22;61.92
78584;BME280;67880;46.082;18.234;2023-07-13T01:00:22;99343.59;;;25.22;61.63
78584;BME280;67880;46.082;18.234;2023-07-13T01:00:57;99348.59;;;25.25;61.62
78584;BME280;67880;46.082;18.234;2023-07-13T01:01:33;99344.44;;;25.23;61.74
78584;BME280;67880;46.082;18.234;2023-07-13T01:02:07;99349.09;;;25.22;61.39
78584;BME280;67880;46.082;18.234;2023-07-13T01:02:45;99348.53;;;25.20;61.89
78584;BME280;67880;46.082;18.234;2023-07-13T01:03:25;99342.78;;;25.22;61.97
78584;BME280;67880;46.082;18.234;2023-07-13T01:04:00;99342.28;;;25.25;61.68
78584;BME280;67880;46.082;18.234;2023-07-13T01:04:34;99347.22;;;25.28;61.22
78584;BME280;67880;46.082;18.234;2023-07-13T01:05:16;99346.06;;;25.24;60.69
78584;BME280;67880;46.082;18.234;2023-07-13T01:05:50;99345.53;;;25.22;61.45
78584;BME280;67880;46.082;18.234;2023-07-13T01:06:28;99332.84;;;25.16;61.51
78584;BME280;67880;46.082;18.234;2023-07-13T01:07:05;99334.81;;;25.20;61.50
78584;BME280;67880;46.082;18.234;2023-07-13T01:07:43;99333.72;;;25.21;61.16
78584;BME280;67880;46.082;18.234;2023-07-13T01:08:22;99330.41;;;25.19;62.06
78584;BME280;67880;46.082;18.234;2023-07-13T01:08:57;99332.88;;;25.21;61.58
78584;BME280;67880;46.082;18.234;2023-07-13T01:10:06;99319.66;;;25.18;62.29
78584;BME280;67880;46.082;18.234;2023-07-13T01:10:54;99320.19;;;25.15;62.15
78584;BME280;67880;46.082;18.234;2023-07-13T01:11:28;99321.84;;;25.16;61.35
78584;BME280;67880;46.082;18.234;2023-07-13T01:12:03;99322.63;;;25.11;62.19
78584;BME280;67880;46.082;18.234;2023-07-13T01:12:38;99319.88;;;25.11;61.51
78584;BME280;67880;46.082;18.234;2023-07-13T01:13:12;99325.69;;;25.15;62.09
78584;BME280;67880;46.082;18.234;2023-07-13T01:14:21;99317.94;;;25.06;62.03
78584;BME280;67880;46.082;18.234;2023-07-13T01:15:42;99308.06;;;25.05;61.94
78584;BME280;67880;46.082;18.234;2023-07-13T01:16:38;99306.47;;;25.15;61.46
78584;BME280;67880;46.082;18.234;2023-07-13T01:17:12;99308.09;;;25.16;61.77
78584;BME280;67880;46.082;18.234;2023-07-13T01:17:48;99306.47;;;25.15;61.64
78584;BME280;67880;46.082;18.234;2023-07-13T01:19:40;99307.00;;;25.17;62.19
78584;BME280;67880;46.082;18.234;2023-07-13T01:21:29;99293.41;;;25.00;62.36
78584;BME280;67880;46.082;18.234;2023-07-13T01:22:08;99302.75;;;25.04;62.04
78584;BME280;67880;46.082;18.234;2023-07-13T01:22:44;99304.69;;;25.03;61.47
78584;BME280;67880;46.082;18.234;2023-07-13T01:23:19;99302.22;;;25.02;61.92
78584;BME280;67880;46.082;18.234;2023-07-13T01:23:54;99305.03;;;25.07;61.25
78584;BME280;67880;46.082;18.234;2023-07-13T01:24:30;99301.19;;;25.08;61.34
78584;BME280;67880;46.082;18.234;2023-07-13T01:25:05;99304.81;;;25.14;61.42
78584;BME280;67880;46.082;18.234;2023-07-13T01:25:40;99300.13;;;25.14;61.09
78584;BME280;67880;46.082;18.234;2023-07-13T01:26:15;99308.09;;;25.16;60.98
78584;BME280;67880;46.082;18.234;2023-07-13T01:26:49;99304.00;;;25.18;61.68
78584;BME280;67880;46.082;18.234;2023-07-13T01:27:26;99293.00;;;25.18;61.28
78584;BME280;67880;46.082;18.234;2023-07-13T01:27:58;99292.44;;;25.16;60.82
78584;BME280;67880;46.082;18.234;2023-07-13T01:28:31;99298.50;;;25.13;61.35
78584;BME280;67880;46.082;18.234;2023-07-13T01:29:43;99300.41;;;25.13;61.81
78584;BME280;67880;46.082;18.234;2023-07-13T01:30:18;99302.34;;;25.17;61.71
78584;BME280;67880;46.082;18.234;2023-07-13T01:30:54;99302.94;;;25.19;61.50
78584;BME280;67880;46.082;18.234;2023-07-13T01:31:30;99304.84;;;25.19;60.97
78584;BME280;67880;46.082;18.234;2023-07-13T01:32:05;99305.91;;;25.18;60.99
78584;BME280;67880;46.082;18.234;2023-07-13T01:32:43;99301.25;;;25.13;61.36
78584;BME280;67880;46.082;18.234;2023-07-13T01:33:24;99296.34;;;25.20;61.29
78584;BME280;67880;46.082;18.234;2023-07-13T01:33:59;99299.63;;;25.22;61.48
78584;BME280;67880;46.082;18.234;2023-07-13T01:35:48;99303.53;;;25.26;60.59
78584;BME280;67880;46.082;18.234;2023-07-13T01:36:58;99302.94;;;25.19;61.33
78584;BME280;67880;46.082;18.234;2023-07-13T01:38:10;99302.06;;;25.14;61.41
78584;BME280;67880;46.082;18.234;2023-07-13T01:38:45;99305.63;;;25.14;61.20
78584;BME280;67880;46.082;18.234;2023-07-13T01:39:21;99289.97;;;25.15;61.57
78584;BME280;67880;46.082;18.234;2023-07-13T01:39:55;99291.94;;;25.19;61.01
78584;BME280;67880;46.082;18.234;2023-07-13T01:40:30;99293.81;;;25.14;61.37
78584;BME280;67880;46.082;18.234;2023-07-13T01:41:04;99284.22;;;25.16;61.06
78584;BME280;67880;46.082;18.234;2023-07-13T01:41:37;99299.88;;;25.16;61.03
78584;BME280;67880;46.082;18.234;2023-07-13T01:42:11;99286.69;;;25.13;61.72
78584;BME280;67880;46.082;18.234;2023-07-13T01:42:47;99281.69;;;25.09;61.43
78584;BME280;67880;46.082;18.234;2023-07-13T01:43:23;99286.91;;;25.11;61.61
78584;BME280;67880;46.082;18.234;2023-07-13T01:43:57;99284.16;;;25.11;61.55
78584;BME280;67880;46.082;18.234;2023-07-13T01:44:33;99279.81;;;25.15;61.18
78584;BME280;67880;46.082;18.234;2023-07-13T01:45:09;99279.28;;;25.18;61.09
78584;BME280;67880;46.082;18.234;2023-07-13T01:45:44;99281.78;;;25.20;61.21
78584;BME280;67880;46.082;18.234;2023-07-13T01:46:18;99273.53;;;25.20;61.53
78584;BME280;67880;46.082;18.234;2023-07-13T01:46:57;99281.78;;;25.20;61.73
78584;BME280;67880;46.082;18.234;2023-07-13T01:47:50;99274.59;;;25.14;61.72
78584;BME280;67880;46.082;18.234;2023-07-13T01:48:26;99270.44;;;25.11;61.96
78584;BME280;67880;46.082;18.234;2023-07-13T01:49:34;99281.41;;;25.11;62.38
78584;BME280;67880;46.082;18.234;2023-07-13T01:50:10;99279.50;;;25.11;62.09
78584;BME280;67880;46.082;18.234;2023-07-13T01:50:44;99275.09;;;25.10;62.26
78584;BME280;67880;46.082;18.234;2023-07-13T01:51:19;99270.69;;;25.09;62.34
78584;BME280;67880;46.082;18.234;2023-07-13T01:51:52;99279.47;;;25.06;62.03
78584;BME280;67880;46.082;18.234;2023-07-13T01:52:28;99274.81;;;25.07;62.13
78584;BME280;67880;46.082;18.234;2023-07-13T01:53:03;99273.19;;;25.11;61.82
78584;BME280;67880;46.082;18.234;2023-07-13T01:53:37;99265.16;;;25.04;62.24
78584;BME280;67880;46.082;18.234;2023-07-13T01:54:11;99272.00;;;25.02;61.83
78584;BME280;67880;46.082;18.234;2023-07-13T01:54:45;99270.63;;;24.99;61.94
78584;BME280;67880;46.082;18.234;2023-07-13T01:55:21;99264.56;;;25.02;62.02
78584;BME280;67880;46.082;18.234;2023-07-13T01:57:05;99263.44;;;24.98;62.06
78584;BME280;67880;46.082;18.234;2023-07-13T01:57:41;99260.44;;;25.00;62.11
78584;BME280;67880;46.082;18.234;2023-07-13T01:58:14;99267.00;;;24.99;61.86
78584;BME280;67880;46.082;18.234;2023-07-13T01:58:48;99261.53;;;24.99;62.30
78584;BME280;67880;46.082;18.234;2023-07-13T01:59:22;99254.09;;;24.94;61.99
78584;BME280;67880;46.082;18.234;2023-07-13T01:59:57;99268.09;;;24.93;62.84
78584;BME280;67880;46.082;18.234;2023-07-13T02:00:32;99264.25;;;24.94;62.19
78584;BME280;67880;46.082;18.234;2023-07-13T02:01:28;99255.19;;;24.93;62.34
78584;BME280;67880;46.082;18.234;2023-07-13T02:02:01;99263.16;;;24.95;62.69
78584;BME280;67880;46.082;18.234;2023-07-13T02:02:35;99268.09;;;24.93;63.06
78584;BME280;67880;46.082;18.234;2023-07-13T02:03:09;99267.78;;;24.89;62.53
78584;BME280;67880;46.082;18.234;2023-07-13T02:03:43;99269.97;;;24.87;63.21
78584;BME280;67880;46.082;18.234;2023-07-13T02:04:55;99274.31;;;24.83;63.10
78584;BME280;67880;46.082;18.234;2023-07-13T02:05:30;99272.63;;;24.77;62.95
78584;BME280;67880;46.082;18.234;2023-07-13T02:06:04;99267.94;;;24.77;63.04
78584;BME280;67880;46.082;18.234;2023-07-13T02:06:38;99265.75;;;24.79;63.27
78584;BME280;67880;46.082;18.234;2023-07-13T02:07:13;99260.28;;;24.79;63.10
78584;BME280;67880;46.082;18.234;2023-07-13T02:07:49;99262.19;;;24.79;63.22
78584;BME280;67880;46.082;18.234;2023-07-13T02:08:27;99252.28;;;24.78;63.42
78584;BME280;67880;46.082;18.234;2023-07-13T02:09:00;99254.53;;;24.81;63.26
78584;BME280;67880;46.082;18.234;2023-07-13T02:09:36;99247.28;;;24.70;63.12
78584;BME280;67880;46.082;18.234;2023-07-13T02:10:10;99248.44;;;24.74;63.32
78584;BME280;67880;46.082;18.234;2023-07-13T02:10:44;99238.22;;;24.69;62.75
78584;BME280;67880;46.082;18.234;2023-07-13T02:11:50;99236.28;;;24.65;63.57
78584;BME280;67880;46.082;18.234;2023-07-13T02:12:24;99236.28;;;24.65;63.62
78584;BME280;67880;46.082;18.234;2023-07-13T02:12:59;99225.50;;;24.58;63.48
78584;BME280;67880;46.082;18.234;2023-07-13T02:13:34;99231.00;;;24.58;63.70
78584;BME280;67880;46.082;18.234;2023-07-13T02:14:09;99226.59;;;24.57;64.23
78584;BME280;67880;46.082;18.234;2023-07-13T02:15:17;99231.22;;;24.51;63.66
78584;BME280;67880;46.082;18.234;2023-07-13T02:15:53;99230.44;;;24.56;63.62
78584;BME280;67880;46.082;18.234;2023-07-13T02:16:30;99244.66;;;24.53;63.75
78584;BME280;67880;46.082;18.234;2023-07-13T02:17:06;99241.63;;;24.49;64.12
78584;BME280;67880;46.082;18.234;2023-07-13T02:17:41;99248.72;;;24.45;64.09
78584;BME280;67880;46.082;18.234;2023-07-13T02:18:15;99251.72;;;24.44;64.23
78584;BME280;67880;46.082;18.234;2023-07-13T02:18:51;99246.81;;;24.46;64.08
78584;BME280;67880;46.082;18.234;2023-07-13T02:19:26;99261.41;;;24.51;64.35
78584;BME280;67880;46.082;18.234;2023-07-13T02:20:02;99255.97;;;24.56;64.17
78584;BME280;67880;46.082;18.234;2023-07-13T02:20:36;99258.44;;;24.58;64.26
78584;BME280;67880;46.082;18.234;2023-07-13T02:21:11;99254.59;;;24.59;64.78
78584;BME280;67880;46.082;18.234;2023-07-13T02:21:47;99249.38;;;24.57;64.13
78584;BME280;67880;46.082;18.234;2023-07-13T02:22:22;99248.25;;;24.53;63.89
78584;BME280;67880;46.082;18.234;2023-07-13T02:22:57;99255.09;;;24.51;63.81
78584;BME280;67880;46.082;18.234;2023-07-13T02:23:31;99255.63;;;24.48;64.50
78584;BME280;67880;46.082;18.234;2023-07-13T02:24:05;99251.47;;;24.45;64.12
78584;BME280;67880;46.082;18.234;2023-07-13T02:24:39;99255.31;;;24.44;64.49
78584;BME280;67880;46.082;18.234;2023-07-13T02:25:14;99255.31;;;24.44;64.11
78584;BME280;67880;46.082;18.234;2023-07-13T02:25:47;99254.47;;;24.44;64.08
78584;BME280;67880;46.082;18.234;2023-07-13T02:26:22;99265.44;;;24.44;64.20
78584;BME280;67880;46.082;18.234;2023-07-13T02:27:00;99249.69;;;24.34;64.46
78584;BME280;67880;46.082;18.234;2023-07-13T02:27:36;99260.47;;;24.41;64.63
78584;BME280;67880;46.082;18.234;2023-07-13T02:28:12;99258.00;;;24.39;64.49
78584;BME280;67880;46.082;18.234;2023-07-13T02:28:52;99257.44;;;24.37;64.72
78584;BME280;67880;46.082;18.234;2023-07-13T02:29:24;99248.09;;;24.38;64.96
78584;BME280;67880;46.082;18.234;2023-07-13T02:30:34;99256.59;;;24.37;65.00
78584;BME280;67880;46.082;18.234;2023-07-13T02:31:40;99258.56;;;24.41;65.09
78584;BME280;67880;46.082;18.234;2023-07-13T02:32:17;99258.31;;;24.43;65.08
78584;BME280;67880;46.082;18.234;2023-07-13T02:32:51;99262.66;;;24.39;64.95
78584;BME280;67880;46.082;18.234;2023-07-13T02:33:58;99267.22;;;24.33;65.49
78584;BME280;67880;46.082;18.234;2023-07-13T02:34:37;99268.91;;;24.34;65.16
78584;BME280;67880;46.082;18.234;2023-07-13T02:35:13;99278.19;;;24.33;64.99
78584;BME280;67880;46.082;18.234;2023-07-13T02:35:48;99281.22;;;24.31;65.57
78584;BME280;67880;46.082;18.234;2023-07-13T02:36:26;99278.13;;;24.28;65.39
78584;BME280;67880;46.082;18.234;2023-07-13T02:37:01;99273.25;;;24.30;65.35
78584;BME280;67880;46.082;18.234;2023-07-13T02:37:37;99267.50;;;24.31;65.17
78584;BME280;67880;46.082;18.234;2023-07-13T02:38:15;99260.09;;;24.32;65.18
78584;BME280;67880;46.082;18.234;2023-07-13T02:38:51;99262.00;;;24.31;65.46
78584;BME280;67880;46.082;18.234;2023-07-13T02:39:30;99261.19;;;24.31;65.03
78584;BME280;67880;46.082;18.234;2023-07-13T02:40:10;99269.09;;;24.27;65.43
78584;BME280;67880;46.082;18.234;2023-07-13T02:40:46;99266.81;;;24.19;65.82
78584;BME280;67880;46.082;18.234;2023-07-13T02:41:22;99266.31;;;24.22;65.76
78584;BME280;67880;46.082;18.234;2023-07-13T02:41:56;99263.50;;;24.17;65.82
78584;BME280;67880;46.082;18.234;2023-07-13T02:42:30;99274.16;;;24.14;66.01
78584;BME280;67880;46.082;18.234;2023-07-13T02:43:37;99270.59;;;24.13;65.54
78584;BME280;67880;46.082;18.234;2023-07-13T02:44:45;99273.59;;;24.12;65.77
78584;BME280;67880;46.082;18.234;2023-07-13T02:45:56;99273.03;;;24.10;66.38
78584;BME280;67880;46.082;18.234;2023-07-13T02:46:36;99274.34;;;24.07;66.97
78584;BME280;67880;46.082;18.234;2023-07-13T02:47:10;99274.94;;;24.09;65.66
78584;BME280;67880;46.082;18.234;2023-07-13T02:47:44;99279.84;;;24.07;66.66
78584;BME280;67880;46.082;18.234;2023-07-13T02:48:33;99276.81;;;24.09;66.24
78584;BME280;67880;46.082;18.234;2023-07-13T02:49:06;99282.00;;;24.05;66.76
78584;BME280;67880;46.082;18.234;2023-07-13T02:49:40;99283.66;;;24.06;66.74
78584;BME280;67880;46.082;18.234;2023-07-13T02:50:14;99281.69;;;24.01;66.83
78584;BME280;67880;46.082;18.234;2023-07-13T02:50:50;99283.66;;;24.06;66.84
78584;BME280;67880;46.082;18.234;2023-07-13T02:51:26;99282.00;;;24.05;66.33
78584;BME280;67880;46.082;18.234;2023-07-13T02:52:02;99285.59;;;24.05;66.06
78584;BME280;67880;46.082;18.234;2023-07-13T02:52:35;99287.50;;;24.05;66.59
78584;BME280;67880;46.082;18.234;2023-07-13T02:53:42;99288.88;;;24.08;66.46
78584;BME280;67880;46.082;18.234;2023-07-13T02:54:18;99296.88;;;24.09;67.00
78584;BME280;67880;46.082;18.234;2023-07-13T02:54:54;99289.41;;;24.04;66.65
78584;BME280;67880;46.082;18.234;2023-07-13T02:55:28;99294.06;;;24.04;66.95
78584;BME280;67880;46.082;18.234;2023-07-13T02:56:05;99295.72;;;24.05;66.91
78584;BME280;67880;46.082;18.234;2023-07-13T02:56:38;99298.72;;;24.03;66.53
78584;BME280;67880;46.082;18.234;2023-07-13T02:57:13;99296.75;;;23.99;67.33
78584;BME280;67880;46.082;18.234;2023-07-13T02:58:24;99301.78;;;24.07;66.42
78584;BME280;67880;46.082;18.234;2023-07-13T02:59:30;99301.28;;;24.10;66.56
78584;BME280;67880;46.082;18.234;2023-07-13T03:00:05;99305.16;;;24.14;67.21
78584;BME280;67880;46.082;18.234;2023-07-13T03:00:40;99304.09;;;24.15;66.58
78584;BME280;67880;46.082;18.234;2023-07-13T03:01:14;99307.41;;;24.17;66.61
78584;BME280;67880;46.082;18.234;2023-07-13T03:01:52;99307.13;;;24.19;66.05
78584;BME280;67880;46.082;18.234;2023-07-13T03:02:25;99302.16;;;24.16;66.51
78584;BME280;67880;46.082;18.234;2023-07-13T03:03:01;99303.50;;;24.13;66.38
78584;BME280;67880;46.082;18.234;2023-07-13T03:03:38;99304.66;;;24.17;65.85
78584;BME280;67880;46.082;18.234;2023-07-13T03:04:12;99306.88;;;24.20;66.72
78584;BME280;67880;46.082;18.234;2023-07-13T03:04:47;99306.31;;;24.18;66.10
78584;BME280;67880;46.082;18.234;2023-07-13T03:05:23;99305.53;;;24.23;66.45
78584;BME280;67880;46.082;18.234;2023-07-13T03:06:01;99305.53;;;24.23;66.53
78584;BME280;67880;46.082;18.234;2023-07-13T03:06:36;99303.34;;;24.25;66.86
78584;BME280;67880;46.082;18.234;2023-07-13T03:07:10;99301.97;;;24.22;66.52
78584;BME280;67880;46.082;18.234;2023-07-13T03:07:43;99309.94;;;24.24;66.93
78584;BME280;67880;46.082;18.234;2023-07-13T03:08:17;99308.59;;;24.26;66.47
78584;BME280;67880;46.082;18.234;2023-07-13T03:08:53;99310.75;;;24.24;66.39
78584;BME280;67880;46.082;18.234;2023-07-13T03:09:32;99313.50;;;24.24;66.29
78584;BME280;67880;46.082;18.234;2023-07-13T03:10:07;99310.50;;;24.26;66.57
78584;BME280;67880;46.082;18.234;2023-07-13T03:10:41;99315.97;;;24.26;66.66
78584;BME280;67880;46.082;18.234;2023-07-13T03:11:19;99313.56;;;24.29;66.45
78584;BME280;67880;46.082;18.234;2023-07-13T03:11:54;99306.66;;;24.27;66.85
78584;BME280;67880;46.082;18.234;2023-07-13T03:13:03;99304.81;;;24.32;66.61
78584;BME280;67880;46.082;18.234;2023-07-13T03:14:12;99309.31;;;24.39;66.23
78584;BME280;67880;46.082;18.234;2023-07-13T03:15:56;99301.84;;;24.34;66.18
78584;BME280;67880;46.082;18.234;2023-07-13T03:16:35;99308.19;;;24.35;66.62
78584;BME280;67880;46.082;18.234;2023-07-13T03:17:11;99300.94;;;24.28;66.64
78584;BME280;67880;46.082;18.234;2023-07-13T03:17:45;99310.22;;;24.27;66.42
78584;BME280;67880;46.082;18.234;2023-07-13T03:18:19;99309.19;;;24.28;66.39
78584;BME280;67880;46.082;18.234;2023-07-13T03:18:53;99321.03;;;24.34;66.47
78584;BME280;67880;46.082;18.234;2023-07-13T03:19:26;99316.41;;;24.35;66.05
78584;BME280;67880;46.082;18.234;2023-07-13T03:20:01;99314.72;;;24.34;66.33
78584;BME280;67880;46.082;18.234;2023-07-13T03:20:35;99320.22;;;24.34;65.96
78584;BME280;67880;46.082;18.234;2023-07-13T03:21:10;99316.41;;;24.35;66.21
78584;BME280;67880;46.082;18.234;2023-07-13T03:21:45;99321.94;;;24.40;66.25
78584;BME280;67880;46.082;18.234;2023-07-13T03:22:18;99324.16;;;24.43;66.02
78584;BME280;67880;46.082;18.234;2023-07-13T03:22:54;99329.13;;;24.46;65.81
78584;BME280;67880;46.082;18.234;2023-07-13T03:23:27;99320.06;;;24.45;65.81
78584;BME280;67880;46.082;18.234;2023-07-13T03:24:03;99312.44;;;24.47;66.14
78584;BME280;67880;46.082;18.234;2023-07-13T03:24:38;99315.66;;;24.44;65.81
78584;BME280;67880;46.082;18.234;2023-07-13T03:25:13;99319.31;;;24.50;65.90
78584;BME280;67880;46.082;18.234;2023-07-13T03:25:47;99324.22;;;24.48;65.54
78584;BME280;67880;46.082;18.234;2023-07-13T03:26:56;99328.16;;;24.57;65.66
78584;BME280;67880;46.082;18.234;2023-07-13T03:28:02;99322.13;;;24.60;65.41
78584;BME280;67880;46.082;18.234;2023-07-13T03:29:10;99313.66;;;24.62;65.37
78584;BME280;67880;46.082;18.234;2023-07-13T03:30:18;99310.38;;;24.65;65.17
78584;BME280;67880;46.082;18.234;2023-07-13T03:31:10;99315.09;;;24.69;64.71
78584;BME280;67880;46.082;18.234;2023-07-13T03:31:48;99305.47;;;24.67;65.28
78584;BME280;67880;46.082;18.234;2023-07-13T03:32:23;99316.25;;;24.73;64.60
78584;BME280;67880;46.082;18.234;2023-07-13T03:32:58;99307.69;;;24.70;65.03
78584;BME280;67880;46.082;18.234;2023-07-13T03:33:34;99310.22;;;24.76;64.96
78584;BME280;67880;46.082;18.234;2023-07-13T03:34:07;99307.81;;;24.80;64.81
78584;BME280;67880;46.082;18.234;2023-07-13T03:34:40;99307.25;;;24.83;64.21
78584;BME280;67880;46.082;18.234;2023-07-13T03:35:15;99307.81;;;24.85;64.32
78584;BME280;67880;46.082;18.234;2023-07-13T03:35:49;99303.16;;;24.85;64.98
78584;BME280;67880;46.082;18.234;2023-07-13T03:36:26;99301.25;;;24.86;64.49
78584;BME280;67880;46.082;18.234;2023-07-13T03:37:03;99305.63;;;24.82;64.30
78584;BME280;67880;46.082;18.234;2023-07-13T03:37:36;99313.03;;;24.81;64.89
78584;BME280;67880;46.082;18.234;2023-07-13T03:38:17;99313.03;;;24.81;64.19
78584;BME280;67880;46.082;18.234;2023-07-13T03:38:58;99300.13;;;24.82;64.43
78584;BME280;67880;46.082;18.234;2023-07-13T03:39:33;99316.59;;;24.82;64.07
78584;BME280;67880;46.082;18.234;2023-07-13T03:40:09;99316.66;;;24.87;63.72
78584;BME280;67880;46.082;18.234;2023-07-13T03:40:45;99300.72;;;24.89;63.72
78584;BME280;67880;46.082;18.234;2023-07-13T03:41:53;99313.38;;;24.90;64.79
78584;BME280;67880;46.082;18.234;2023-07-13T03:42:27;99306.78;;;24.91;63.77
78584;BME280;67880;46.082;18.234;2023-07-13T03:43:01;99306.53;;;24.93;64.06
78584;BME280;67880;46.082;18.234;2023-07-13T03:43:37;99313.41;;;24.95;64.39
78584;BME280;67880;46.082;18.234;2023-07-13T03:44:11;99322.47;;;24.96;64.38
78584;BME280;67880;46.082;18.234;2023-07-13T03:44:45;99326.88;;;24.97;64.28
78584;BME280;67880;46.082;18.234;2023-07-13T03:45:25;99332.38;;;24.97;64.34